Terminal Aerodrome Forecast
Issued by NWS Albany, NY

Home | Current Version | Previous Version | Text Only | Print | Product List | Glossary On
Versions: 1 2 3 4 5 6 7 8 9 10 11 12 13 14 15 16 17 18 19 20 21
000
FTUS41 KALY 062335
TAFALB
TAF
KALB 062335Z 0700/0724 18004KT P6SM BKN250
     FM070900 20003KT P6SM BKN120
     FM071400 19008KT P6SM BKN060 OVC100
     FM071900 22008KT P6SM VCSH OVC045=

USA.gov is the U.S. government's official web portal to all federal, state and local government web resources and services.